sensor_id;sensor_type;location;lat;lon;timestamp;pressure;altitude;pressure_sealevel;temperature;humidity
46392;BME280;32098;49.448;7.904;2023-12-04T00:01:50;98201.28;;;-4.28;75.44
46392;BME280;32098;49.448;7.904;2023-12-04T00:04:17;98210.19;;;-4.30;76.23
46392;BME280;32098;49.448;7.904;2023-12-04T00:06:44;98215.97;;;-4.36;75.98
46392;BME280;32098;49.448;7.904;2023-12-04T00:09:11;98205.94;;;-4.31;75.75
46392;BME280;32098;49.448;7.904;2023-12-04T00:11:38;98168.34;;;-4.57;75.73
46392;BME280;32098;49.448;7.904;2023-12-04T00:14:04;98201.16;;;-4.36;75.74
46392;BME280;32098;49.448;7.904;2023-12-04T00:16:33;98197.31;;;-4.32;75.05
46392;BME280;32098;49.448;7.904;2023-12-04T00:19:01;98196.75;;;-4.35;75.76
46392;BME280;32098;49.448;7.904;2023-12-04T00:21:28;98189.63;;;-4.33;74.95
46392;BME280;32098;49.448;7.904;2023-12-04T00:23:54;98197.97;;;-4.49;76.17
46392;BME280;32098;49.448;7.904;2023-12-04T00:26:21;98180.69;;;-4.59;76.62
46392;BME280;32098;49.448;7.904;2023-12-04T00:28:47;98177.94;;;-4.67;77.20
46392;BME280;32098;49.448;7.904;2023-12-04T00:31:14;98185.91;;;-4.59;77.26
46392;BME280;32098;49.448;7.904;2023-12-04T00:33:41;98183.97;;;-4.57;77.35
46392;BME280;32098;49.448;7.904;2023-12-04T00:36:09;98177.41;;;-4.52;77.80
46392;BME280;32098;49.448;7.904;2023-12-04T00:38:35;98164.22;;;-4.50;77.52
46392;BME280;32098;49.448;7.904;2023-12-04T00:41:02;98155.47;;;-4.49;77.29
46392;BME280;32098;49.448;7.904;2023-12-04T00:43:29;98156.72;;;-4.53;76.61
46392;BME280;32098;49.448;7.904;2023-12-04T00:45:56;98142.97;;;-4.65;77.07
46392;BME280;32098;49.448;7.904;2023-12-04T00:48:24;98148.31;;;-4.66;77.19
46392;BME280;32098;49.448;7.904;2023-12-04T00:50:51;98154.38;;;-4.66;78.27
46392;BME280;32098;49.448;7.904;2023-12-04T00:53:17;98155.16;;;-4.65;77.59
46392;BME280;32098;49.448;7.904;2023-12-04T00:55:44;98151.88;;;-4.67;77.78
46392;BME280;32098;49.448;7.904;2023-12-04T00:58:11;98161.34;;;-4.76;78.14
46392;BME280;32098;49.448;7.904;2023-12-04T01:00:38;98162.72;;;-4.72;78.79
46392;BME280;32098;49.448;7.904;2023-12-04T01:03:04;98160.09;;;-4.62;78.10
46392;BME280;32098;49.448;7.904;2023-12-04T01:05:31;98165.31;;;-4.62;78.74
46392;BME280;32098;49.448;7.904;2023-12-04T01:07:58;98139.53;;;-4.65;78.26
46392;BME280;32098;49.448;7.904;2023-12-04T01:10:24;98159.56;;;-4.47;78.48
46392;BME280;32098;49.448;7.904;2023-12-04T01:12:51;98150.25;;;-4.49;77.96
46392;BME280;32098;49.448;7.904;2023-12-04T01:15:19;98150.81;;;-4.46;77.98
46392;BME280;32098;49.448;7.904;2023-12-04T01:17:46;98148.88;;;-4.44;77.96
46392;BME280;32098;49.448;7.904;2023-12-04T01:20:12;98146.69;;;-4.48;77.90
46392;BME280;32098;49.448;7.904;2023-12-04T01:22:39;98147.22;;;-4.54;78.03
46392;BME280;32098;49.448;7.904;2023-12-04T01:25:06;98149.97;;;-4.56;78.37
46392;BME280;32098;49.448;7.904;2023-12-04T01:27:33;98138.72;;;-4.66;78.01
46392;BME280;32098;49.448;7.904;2023-12-04T01:30:02;98137.06;;;-4.57;78.13
46392;BME280;32098;49.448;7.904;2023-12-04T01:32:31;98116.22;;;-4.86;78.29
46392;BME280;32098;49.448;7.904;2023-12-04T01:34:57;98093.47;;;-4.93;78.95
46392;BME280;32098;49.448;7.904;2023-12-04T01:37:24;98115.56;;;-4.78;78.58
46392;BME280;32098;49.448;7.904;2023-12-04T01:39:51;98105.13;;;-4.88;79.42
46392;BME280;32098;49.448;7.904;2023-12-04T01:42:17;98112.69;;;-4.75;78.88
46392;BME280;32098;49.448;7.904;2023-12-04T01:44:44;98107.31;;;-4.83;78.95
46392;BME280;32098;49.448;7.904;2023-12-04T01:47:11;98102.94;;;-4.83;79.24
46392;BME280;32098;49.448;7.904;2023-12-04T01:49:38;98103.63;;;-4.90;79.33
46392;BME280;32098;49.448;7.904;2023-12-04T01:52:05;98089.63;;;-4.89;79.84
46392;BME280;32098;49.448;7.904;2023-12-04T01:54:32;98085.78;;;-4.95;79.46
46392;BME280;32098;49.448;7.904;2023-12-04T01:56:59;98083.59;;;-4.90;79.83
46392;BME280;32098;49.448;7.904;2023-12-04T01:59:26;98085.94;;;-4.87;79.28
46392;BME280;32098;49.448;7.904;2023-12-04T02:01:54;98071.13;;;-4.96;79.59
46392;BME280;32098;49.448;7.904;2023-12-04T02:04:22;98080.59;;;-4.85;79.65
46392;BME280;32098;49.448;7.904;2023-12-04T02:06:48;98078.00;;;-4.85;79.61
46392;BME280;32098;49.448;7.904;2023-12-04T02:09:15;98072.78;;;-4.85;79.66
46392;BME280;32098;49.448;7.904;2023-12-04T02:11:42;98078.94;;;-4.77;80.12
46392;BME280;32098;49.448;7.904;2023-12-04T02:14:09;98075.25;;;-4.74;79.41
46392;BME280;32098;49.448;7.904;2023-12-04T02:16:42;98055.63;;;-4.98;79.19
46392;BME280;32098;49.448;7.904;2023-12-04T02:19:12;98069.34;;;-4.86;79.54
46392;BME280;32098;49.448;7.904;2023-12-04T02:21:39;98070.19;;;-4.85;79.59
46392;BME280;32098;49.448;7.904;2023-12-04T02:24:06;98062.78;;;-4.80;79.98
46392;BME280;32098;49.448;7.904;2023-12-04T02:26:39;98059.63;;;-4.74;79.62
46392;BME280;32098;49.448;7.904;2023-12-04T02:29:13;98052.63;;;-4.83;79.67
46392;BME280;32098;49.448;7.904;2023-12-04T02:31:41;98040.28;;;-4.81;80.12
46392;BME280;32098;49.448;7.904;2023-12-04T02:34:10;98041.66;;;-4.87;79.44
46392;BME280;32098;49.448;7.904;2023-12-04T02:36:38;98040.41;;;-4.93;79.55
46392;BME280;32098;49.448;7.904;2023-12-04T02:39:05;98032.06;;;-4.86;79.97
46392;BME280;32098;49.448;7.904;2023-12-04T02:41:32;98005.47;;;-5.00;79.98
46392;BME280;32098;49.448;7.904;2023-12-04T02:43:59;98025.75;;;-4.74;79.91
46392;BME280;32098;49.448;7.904;2023-12-04T02:46:25;98016.59;;;-4.78;79.63
46392;BME280;32098;49.448;7.904;2023-12-04T02:48:52;97998.63;;;-4.81;80.22
46392;BME280;32098;49.448;7.904;2023-12-04T02:51:19;98009.44;;;-4.67;79.69
46392;BME280;32098;49.448;7.904;2023-12-04T02:53:46;97989.00;;;-4.71;80.00
46392;BME280;32098;49.448;7.904;2023-12-04T02:56:12;97987.34;;;-4.72;79.72
46392;BME280;32098;49.448;7.904;2023-12-04T02:58:39;97988.75;;;-4.78;80.13
46392;BME280;32098;49.448;7.904;2023-12-04T03:01:06;97986.56;;;-4.82;79.94
46392;BME280;32098;49.448;7.904;2023-12-04T03:03:33;97987.66;;;-4.95;79.91
46392;BME280;32098;49.448;7.904;2023-12-04T03:06:00;97963.00;;;-4.90;80.63
46392;BME280;32098;49.448;7.904;2023-12-04T03:08:26;97970.69;;;-5.08;80.91
46392;BME280;32098;49.448;7.904;2023-12-04T03:10:53;97969.72;;;-5.17;81.53
46392;BME280;32098;49.448;7.904;2023-12-04T03:13:19;97972.59;;;-5.39;82.39
46392;BME280;32098;49.448;7.904;2023-12-04T03:15:46;97975.88;;;-5.56;83.96
46392;BME280;32098;49.448;7.904;2023-12-04T03:18:13;97986.03;;;-5.34;83.17
46392;BME280;32098;49.448;7.904;2023-12-04T03:20:39;97984.38;;;-5.35;83.26
46392;BME280;32098;49.448;7.904;2023-12-04T03:23:06;97983.44;;;-5.34;82.97
46392;BME280;32098;49.448;7.904;2023-12-04T03:25:33;97978.91;;;-5.22;82.62
46392;BME280;32098;49.448;7.904;2023-12-04T03:28:00;97980.81;;;-5.15;82.14
46392;BME280;32098;49.448;7.904;2023-12-04T03:30:26;97978.63;;;-5.10;82.05
46392;BME280;32098;49.448;7.904;2023-12-04T03:32:53;97969.31;;;-5.12;81.09
46392;BME280;32098;49.448;7.904;2023-12-04T03:35:20;97978.75;;;-5.02;81.29
46392;BME280;32098;49.448;7.904;2023-12-04T03:37:47;97984.78;;;-4.91;80.57
46392;BME280;32098;49.448;7.904;2023-12-04T03:40:16;97985.34;;;-4.88;80.56
46392;BME280;32098;49.448;7.904;2023-12-04T03:42:43;97991.75;;;-4.82;80.21
46392;BME280;32098;49.448;7.904;2023-12-04T03:45:10;97954.66;;;-5.04;79.69
46392;BME280;32098;49.448;7.904;2023-12-04T03:47:36;97986.44;;;-4.81;79.33
46392;BME280;32098;49.448;7.904;2023-12-04T03:50:03;97993.66;;;-4.75;78.92
46392;BME280;32098;49.448;7.904;2023-12-04T03:52:30;97990.38;;;-4.77;79.03
46392;BME280;32098;49.448;7.904;2023-12-04T03:54:56;97989.72;;;-4.88;78.35
46392;BME280;32098;49.448;7.904;2023-12-04T03:57:23;97981.75;;;-4.87;79.04
46392;BME280;32098;49.448;7.904;2023-12-04T03:59:50;97972.88;;;-5.04;79.24
46392;BME280;32098;49.448;7.904;2023-12-04T04:02:16;97960.81;;;-5.14;79.71
46392;BME280;32098;49.448;7.904;2023-12-04T04:04:43;97979.47;;;-5.19;80.42
46392;BME280;32098;49.448;7.904;2023-12-04T04:07:09;97977.53;;;-5.36;80.27
46392;BME280;32098;49.448;7.904;2023-12-04T04:09:36;97959.59;;;-5.48;80.63
46392;BME280;32098;49.448;7.904;2023-12-04T04:12:04;97980.00;;;-5.34;80.62
46392;BME280;32098;49.448;7.904;2023-12-04T04:14:30;97979.59;;;-5.39;80.57
46392;BME280;32098;49.448;7.904;2023-12-04T04:16:57;97982.03;;;-5.38;80.69
46392;BME280;32098;49.448;7.904;2023-12-04T04:19:24;97982.31;;;-5.41;80.89
46392;BME280;32098;49.448;7.904;2023-12-04T04:21:51;97982.19;;;-5.30;81.02
46392;BME280;32098;49.448;7.904;2023-12-04T04:24:17;97975.09;;;-5.18;81.72
46392;BME280;32098;49.448;7.904;2023-12-04T04:26:44;97977.94;;;-5.12;80.96
46392;BME280;32098;49.448;7.904;2023-12-04T04:29:11;97991.63;;;-5.10;80.07
46392;BME280;32098;49.448;7.904;2023-12-04T04:31:37;97985.22;;;-5.06;80.02
46392;BME280;32098;49.448;7.904;2023-12-04T04:34:04;97983.97;;;-5.02;80.03
46392;BME280;32098;49.448;7.904;2023-12-04T04:36:31;97986.72;;;-4.93;79.63
46392;BME280;32098;49.448;7.904;2023-12-04T04:38:57;97946.84;;;-5.23;79.51
46392;BME280;32098;49.448;7.904;2023-12-04T04:41:24;97973.81;;;-5.05;79.21
46392;BME280;32098;49.448;7.904;2023-12-04T04:43:51;97967.94;;;-5.07;79.67
46392;BME280;32098;49.448;7.904;2023-12-04T04:46:17;97966.97;;;-5.25;79.92
46392;BME280;32098;49.448;7.904;2023-12-04T04:48:44;97959.44;;;-5.28;80.74
46392;BME280;32098;49.448;7.904;2023-12-04T04:51:11;97957.25;;;-5.32;80.72
46392;BME280;32098;49.448;7.904;2023-12-04T04:53:38;97958.66;;;-5.28;81.07
46392;BME280;32098;49.448;7.904;2023-12-04T04:56:05;97965.78;;;-5.21;80.97
46392;BME280;32098;49.448;7.904;2023-12-04T04:58:31;97964.09;;;-5.12;80.68
46392;BME280;32098;49.448;7.904;2023-12-04T05:00:58;97940.00;;;-5.24;80.83
46392;BME280;32098;49.448;7.904;2023-12-04T05:03:25;97950.41;;;-5.05;80.39
46392;BME280;32098;49.448;7.904;2023-12-04T05:05:52;97954.50;;;-5.02;80.06
46392;BME280;32098;49.448;7.904;2023-12-04T05:08:19;97949.03;;;-4.99;80.44
46392;BME280;32098;49.448;7.904;2023-12-04T05:10:46;97960.53;;;-4.92;79.83
46392;BME280;32098;49.448;7.904;2023-12-04T05:13:12;97942.44;;;-4.93;80.40
46392;BME280;32098;49.448;7.904;2023-12-04T05:15:39;97954.50;;;-5.02;79.75
46392;BME280;32098;49.448;7.904;2023-12-04T05:18:06;97930.56;;;-5.06;79.51
46392;BME280;32098;49.448;7.904;2023-12-04T05:20:32;97937.66;;;-5.08;80.45
46392;BME280;32098;49.448;7.904;2023-12-04T05:22:59;97916.41;;;-5.13;80.32
46392;BME280;32098;49.448;7.904;2023-12-04T05:25:25;97928.75;;;-4.96;80.33
46392;BME280;32098;49.448;7.904;2023-12-04T05:27:59;97896.97;;;-5.09;79.96
46392;BME280;32098;49.448;7.904;2023-12-04T05:30:27;97930.94;;;-4.91;79.89
46392;BME280;32098;49.448;7.904;2023-12-04T05:32:53;97929.16;;;-4.90;79.94
46392;BME280;32098;49.448;7.904;2023-12-04T05:35:21;97921.91;;;-4.97;79.71
46392;BME280;32098;49.448;7.904;2023-12-04T05:37:48;97899.19;;;-5.14;80.11
46392;BME280;32098;49.448;7.904;2023-12-04T05:40:16;97910.13;;;-5.10;80.35
46392;BME280;32098;49.448;7.904;2023-12-04T05:42:43;97904.94;;;-5.01;79.63
46392;BME280;32098;49.448;7.904;2023-12-04T05:45:10;97902.47;;;-5.12;80.41
46392;BME280;32098;49.448;7.904;2023-12-04T05:47:37;97880.56;;;-5.19;80.95
46392;BME280;32098;49.448;7.904;2023-12-04T05:50:04;97889.59;;;-5.13;80.56
46392;BME280;32098;49.448;7.904;2023-12-04T05:52:31;97885.09;;;-5.21;80.93
46392;BME280;32098;49.448;7.904;2023-12-04T05:54:57;97891.38;;;-5.14;81.10
46392;BME280;32098;49.448;7.904;2023-12-04T05:57:24;97880.28;;;-5.16;80.20
46392;BME280;32098;49.448;7.904;2023-12-04T05:59:50;97878.91;;;-5.20;80.10
46392;BME280;32098;49.448;7.904;2023-12-04T06:02:17;97871.66;;;-5.26;80.56
46392;BME280;32098;49.448;7.904;2023-12-04T06:04:44;97864.53;;;-5.24;80.83
46392;BME280;32098;49.448;7.904;2023-12-04T06:07:19;97853.16;;;-5.23;80.71
46392;BME280;32098;49.448;7.904;2023-12-04T06:09:46;97864.78;;;-5.17;80.82
46392;BME280;32098;49.448;7.904;2023-12-04T06:12:12;97850.41;;;-5.12;80.47
46392;BME280;32098;49.448;7.904;2023-12-04T06:14:39;97851.78;;;-5.17;80.62
46392;BME280;32098;49.448;7.904;2023-12-04T06:17:05;97849.72;;;-5.14;80.61
46392;BME280;32098;49.448;7.904;2023-12-04T06:19:33;97836.44;;;-5.20;80.59
46392;BME280;32098;49.448;7.904;2023-12-04T06:21:59;97835.72;;;-5.13;80.11
46392;BME280;32098;49.448;7.904;2023-12-04T06:24:26;97827.22;;;-5.05;79.97
46392;BME280;32098;49.448;7.904;2023-12-04T06:26:53;97818.88;;;-5.09;79.48
46392;BME280;32098;49.448;7.904;2023-12-04T06:29:20;97813.41;;;-5.06;79.34
46392;BME280;32098;49.448;7.904;2023-12-04T06:31:47;97809.41;;;-5.00;79.92
46392;BME280;32098;49.448;7.904;2023-12-04T06:34:14;97800.78;;;-5.01;79.30
46392;BME280;32098;49.448;7.904;2023-12-04T06:36:41;97795.66;;;-4.93;79.72
46392;BME280;32098;49.448;7.904;2023-12-04T06:39:11;97807.81;;;-5.11;78.68
46392;BME280;32098;49.448;7.904;2023-12-04T06:41:42;97797.78;;;-5.06;78.66
46392;BME280;32098;49.448;7.904;2023-12-04T06:44:09;97793.38;;;-5.05;79.37
46392;BME280;32098;49.448;7.904;2023-12-04T06:46:37;97788.75;;;-5.11;79.02
46392;BME280;32098;49.448;7.904;2023-12-04T06:49:05;97791.78;;;-5.16;79.43
46392;BME280;32098;49.448;7.904;2023-12-04T06:51:35;97790.69;;;-5.13;78.65
46392;BME280;32098;49.448;7.904;2023-12-04T06:54:02;97784.38;;;-5.11;78.87
46392;BME280;32098;49.448;7.904;2023-12-04T06:56:28;97776.97;;;-5.06;79.15
46392;BME280;32098;49.448;7.904;2023-12-04T06:58:55;97779.56;;;-5.06;78.38
46392;BME280;32098;49.448;7.904;2023-12-04T07:01:22;97779.88;;;-5.18;78.63
46392;BME280;32098;49.448;7.904;2023-12-04T07:03:49;97782.72;;;-5.12;79.18
46392;BME280;32098;49.448;7.904;2023-12-04T07:06:15;97782.19;;;-5.15;78.60
46392;BME280;32098;49.448;7.904;2023-12-04T07:08:43;97779.56;;;-5.06;78.56
46392;BME280;32098;49.448;7.904;2023-12-04T07:11:09;97780.63;;;-4.99;78.47
46392;BME280;32098;49.448;7.904;2023-12-04T07:13:36;97779.97;;;-5.01;78.22
46392;BME280;32098;49.448;7.904;2023-12-04T07:16:03;97778.19;;;-5.10;77.76
46392;BME280;32098;49.448;7.904;2023-12-04T07:18:30;97778.78;;;-5.16;78.37
46392;BME280;32098;49.448;7.904;2023-12-04T07:20:57;97782.19;;;-5.15;78.41
46392;BME280;32098;49.448;7.904;2023-12-04T07:23:23;97791.22;;;-5.10;78.78
46392;BME280;32098;49.448;7.904;2023-12-04T07:25:53;97785.31;;;-5.12;78.72
46392;BME280;32098;49.448;7.904;2023-12-04T07:28:20;97801.81;;;-5.30;78.91
46392;BME280;32098;49.448;7.904;2023-12-04T07:30:46;97785.59;;;-5.15;78.91
46392;BME280;32098;49.448;7.904;2023-12-04T07:33:13;97783.59;;;-5.21;78.71
46392;BME280;32098;49.448;7.904;2023-12-04T07:35:40;97789.47;;;-5.19;78.85
46392;BME280;32098;49.448;7.904;2023-12-04T07:38:06;97793.69;;;-5.08;78.80
46392;BME280;32098;49.448;7.904;2023-12-04T07:40:33;97785.72;;;-5.07;78.22
46392;BME280;32098;49.448;7.904;2023-12-04T07:43:00;97777.81;;;-4.87;77.06
46392;BME280;32098;49.448;7.904;2023-12-04T07:45:27;97782.25;;;-4.98;76.97
46392;BME280;32098;49.448;7.904;2023-12-04T07:47:55;97777.63;;;-5.04;77.99
46392;BME280;32098;49.448;7.904;2023-12-04T07:50:22;97771.06;;;-5.08;78.24
46392;BME280;32098;49.448;7.904;2023-12-04T07:52:51;97767.53;;;-4.79;77.91
46392;BME280;32098;49.448;7.904;2023-12-04T07:55:17;97762.31;;;-4.79;77.11
46392;BME280;32098;49.448;7.904;2023-12-04T07:57:44;97763.75;;;-4.67;76.25
46392;BME280;32098;49.448;7.904;2023-12-04T08:00:11;97763.84;;;-4.59;75.87
46392;BME280;32098;49.448;7.904;2023-12-04T08:02:38;97754.88;;;-4.74;75.71
46392;BME280;32098;49.448;7.904;2023-12-04T08:05:05;97758.47;;;-4.58;75.48
46392;BME280;32098;49.448;7.904;2023-12-04T08:07:33;97751.19;;;-4.54;74.99
46392;BME280;32098;49.448;7.904;2023-12-04T08:09:59;97753.97;;;-4.56;74.92
46392;BME280;32098;49.448;7.904;2023-12-04T08:12:26;97756.25;;;-4.53;75.17
46392;BME280;32098;49.448;7.904;2023-12-04T08:14:53;97744.22;;;-4.36;74.73
46392;BME280;32098;49.448;7.904;2023-12-04T08:17:20;97745.66;;;-4.24;74.88
46392;BME280;32098;49.448;7.904;2023-12-04T08:19:48;97744.75;;;-4.15;74.71
46392;BME280;32098;49.448;7.904;2023-12-04T08:22:19;97741.75;;;-4.02;74.27
46392;BME280;32098;49.448;7.904;2023-12-04T08:24:46;97761.44;;;-3.90;73.13
46392;BME280;32098;49.448;7.904;2023-12-04T08:27:13;97747.34;;;-3.80;72.71
46392;BME280;32098;49.448;7.904;2023-12-04T08:29:40;97748.53;;;-3.74;72.53
46392;BME280;32098;49.448;7.904;2023-12-04T08:32:07;97746.94;;;-3.93;73.42
46392;BME280;32098;49.448;7.904;2023-12-04T08:34:34;97739.75;;;-3.91;73.02
46392;BME280;32098;49.448;7.904;2023-12-04T08:37:01;97733.63;;;-3.82;72.51
46392;BME280;32098;49.448;7.904;2023-12-04T08:39:28;97707.94;;;-3.94;72.54
46392;BME280;32098;49.448;7.904;2023-12-04T08:41:55;97730.47;;;-3.68;72.02
46392;BME280;32098;49.448;7.904;2023-12-04T08:44:30;97704.28;;;-3.84;72.30
46392;BME280;32098;49.448;7.904;2023-12-04T08:46:57;97736.56;;;-3.59;71.82
46392;BME280;32098;49.448;7.904;2023-12-04T08:49:24;97732.72;;;-3.47;72.31
46392;BME280;32098;49.448;7.904;2023-12-04T08:52:05;97735.63;;;-3.58;72.46
46392;BME280;32098;49.448;7.904;2023-12-04T08:54:32;97739.00;;;-3.57;71.73
46392;BME280;32098;49.448;7.904;2023-12-04T08:56:59;97740.44;;;-3.45;71.50
46392;BME280;32098;49.448;7.904;2023-12-04T08:59:26;97738.16;;;-3.66;72.20
46392;BME280;32098;49.448;7.904;2023-12-04T09:01:53;97733.38;;;-3.53;72.58
46392;BME280;32098;49.448;7.904;2023-12-04T09:04:19;97735.09;;;-3.61;72.18
46392;BME280;32098;49.448;7.904;2023-12-04T09:06:46;97727.09;;;-3.60;72.21
46392;BME280;32098;49.448;7.904;2023-12-04T09:09:16;97736.56;;;-3.59;72.14
46392;BME280;32098;49.448;7.904;2023-12-04T09:11:43;97743.56;;;-3.59;72.63
46392;BME280;32098;49.448;7.904;2023-12-04T09:14:10;97740.44;;;-3.45;72.32
46392;BME280;32098;49.448;7.904;2023-12-04T09:16:37;97745.19;;;-3.41;72.26
46392;BME280;32098;49.448;7.904;2023-12-04T09:19:04;97745.53;;;-3.36;71.43
46392;BME280;32098;49.448;7.904;2023-12-04T09:21:31;97754.50;;;-3.38;71.94
46392;BME280;32098;49.448;7.904;2023-12-04T09:23:58;97754.84;;;-3.33;72.09
46392;BME280;32098;49.448;7.904;2023-12-04T09:26:25;97755.31;;;-3.38;71.79
46392;BME280;32098;49.448;7.904;2023-12-04T09:28:51;97750.94;;;-3.29;71.96
46392;BME280;32098;49.448;7.904;2023-12-04T09:31:18;97749.34;;;-3.30;71.96
46392;BME280;32098;49.448;7.904;2023-12-04T09:33:46;97752.06;;;-3.32;71.43
46392;BME280;32098;49.448;7.904;2023-12-04T09:36:14;97752.25;;;-3.33;72.36
46392;BME280;32098;49.448;7.904;2023-12-04T09:38:41;97743.88;;;-3.37;72.02
46392;BME280;32098;49.448;7.904;2023-12-04T09:41:10;97745.06;;;-3.31;72.61
46392;BME280;32098;49.448;7.904;2023-12-04T09:43:38;97744.81;;;-3.20;73.15
46392;BME280;32098;49.448;7.904;2023-12-04T09:46:06;97738.78;;;-3.21;71.95
46392;BME280;32098;49.448;7.904;2023-12-04T09:48:33;97738.59;;;-3.19;72.15
46392;BME280;32098;49.448;7.904;2023-12-04T09:51:01;97734.69;;;-3.23;73.38
46392;BME280;32098;49.448;7.904;2023-12-04T09:53:30;97731.41;;;-3.25;74.20
46392;BME280;32098;49.448;7.904;2023-12-04T09:55:59;97726.25;;;-3.43;75.79
46392;BME280;32098;49.448;7.904;2023-12-04T09:58:31;97725.78;;;-3.38;76.37
46392;BME280;32098;49.448;7.904;2023-12-04T10:00:59;97717.66;;;-3.27;77.13
46392;BME280;32098;49.448;7.904;2023-12-04T10:03:27;97707.56;;;-3.30;76.59
46392;BME280;32098;49.448;7.904;2023-12-04T10:05:57;97712.88;;;-3.40;78.32
46392;BME280;32098;49.448;7.904;2023-12-04T10:08:23;97708.78;;;-3.42;78.10
46392;BME280;32098;49.448;7.904;2023-12-04T10:10:50;97693.53;;;-3.29;77.80
46392;BME280;32098;49.448;7.904;2023-12-04T10:13:17;97689.59;;;-3.33;77.83
46392;BME280;32098;49.448;7.904;2023-12-04T10:16:04;97681.75;;;-3.33;78.36
46392;BME280;32098;49.448;7.904;2023-12-04T10:18:31;97679.97;;;-3.33;79.15
46392;BME280;32098;49.448;7.904;2023-12-04T10:20:59;97663.53;;;-3.25;79.36
46392;BME280;32098;49.448;7.904;2023-12-04T10:26:03;97668.06;;;-3.27;79.77
46392;BME280;32098;49.448;7.904;2023-12-04T10:28:30;97634.91;;;-3.35;79.93
46392;BME280;32098;49.448;7.904;2023-12-04T10:30:57;97654.06;;;-3.26;80.17
46392;BME280;32098;49.448;7.904;2023-12-04T10:33:25;97635.78;;;-3.26;80.47
46392;BME280;32098;49.448;7.904;2023-12-04T10:35:54;97658.63;;;-3.28;80.80
46392;BME280;32098;49.448;7.904;2023-12-04T10:38:24;97651.28;;;-3.25;80.81
46392;BME280;32098;49.448;7.904;2023-12-04T10:40:53;97643.50;;;-3.09;80.75
46392;BME280;32098;49.448;7.904;2023-12-04T10:43:21;97631.63;;;-3.03;81.41
46392;BME280;32098;49.448;7.904;2023-12-04T10:45:49;97627.69;;;-3.15;82.35
46392;BME280;32098;49.448;7.904;2023-12-04T10:48:18;97628.03;;;-3.10;82.11
46392;BME280;32098;49.448;7.904;2023-12-04T10:50:47;97620.97;;;-3.10;83.77
46392;BME280;32098;49.448;7.904;2023-12-04T10:53:16;97616.53;;;-3.25;84.43
46392;BME280;32098;49.448;7.904;2023-12-04T10:55:44;97593.63;;;-3.39;85.70
46392;BME280;32098;49.448;7.904;2023-12-04T10:58:13;97603.94;;;-3.30;86.55
46392;BME280;32098;49.448;7.904;2023-12-04T11:00:46;97597.31;;;-3.16;86.73
46392;BME280;32098;49.448;7.904;2023-12-04T11:03:21;97595.31;;;-3.22;87.15
46392;BME280;32098;49.448;7.904;2023-12-04T11:05:55;97587.81;;;-3.25;86.46
46392;BME280;32098;49.448;7.904;2023-12-04T11:08:22;97562.63;;;-3.42;87.23
46392;BME280;32098;49.448;7.904;2023-12-04T11:10:59;97572.19;;;-3.09;87.34
46392;BME280;32098;49.448;7.904;2023-12-04T11:13:34;97581.34;;;-3.05;87.48
46392;BME280;32098;49.448;7.904;2023-12-04T11:16:05;97566.94;;;-3.17;87.89
46392;BME280;32098;49.448;7.904;2023-12-04T11:18:36;97565.69;;;-3.05;88.08
46392;BME280;32098;49.448;7.904;2023-12-04T11:21:07;97557.03;;;-2.97;87.94
46392;BME280;32098;49.448;7.904;2023-12-04T11:23:35;97550.47;;;-3.10;87.68
46392;BME280;32098;49.448;7.904;2023-12-04T11:26:03;97547.91;;;-2.93;87.75
46392;BME280;32098;49.448;7.904;2023-12-04T11:28:31;97541.22;;;-2.88;87.46
46392;BME280;32098;49.448;7.904;2023-12-04T11:30:59;97512.78;;;-3.15;88.12
46392;BME280;32098;49.448;7.904;2023-12-04T11:33:27;97528.78;;;-2.94;87.95
46392;BME280;32098;49.448;7.904;2023-12-04T11:36:08;97516.06;;;-2.81;88.08
46392;BME280;32098;49.448;7.904;2023-12-04T11:38:48;97487.66;;;-3.00;88.46
46392;BME280;32098;49.448;7.904;2023-12-04T11:41:20;97507.25;;;-2.88;88.91
46392;BME280;32098;49.448;7.904;2023-12-04T11:43:54;97498.59;;;-2.88;88.98
46392;BME280;32098;49.448;7.904;2023-12-04T11:46:23;97506.25;;;-2.95;89.72
46392;BME280;32098;49.448;7.904;2023-12-04T11:48:53;97491.25;;;-2.93;89.34
46392;BME280;32098;49.448;7.904;2023-12-04T11:54:09;97482.44;;;-2.92;90.26
46392;BME280;32098;49.448;7.904;2023-12-04T11:56:37;97468.88;;;-2.79;90.40
46392;BME280;32098;49.448;7.904;2023-12-04T11:59:05;97458.28;;;-2.94;91.25
46392;BME280;32098;49.448;7.904;2023-12-04T12:01:36;97437.53;;;-2.87;90.74
46392;BME280;32098;49.448;7.904;2023-12-04T12:04:07;97436.41;;;-3.01;91.25
46392;BME280;32098;49.448;7.904;2023-12-04T12:06:34;97458.91;;;-2.84;91.83
46392;BME280;32098;49.448;7.904;2023-12-04T12:09:01;97454.00;;;-2.95;93.49
46392;BME280;32098;49.448;7.904;2023-12-04T12:11:28;97416.50;;;-3.10;93.68
46392;BME280;32098;49.448;7.904;2023-12-04T12:13:54;97431.97;;;-2.84;93.18
46392;BME280;32098;49.448;7.904;2023-12-04T12:16:21;97433.75;;;-2.61;93.22
46392;BME280;32098;49.448;7.904;2023-12-04T12:18:49;97436.19;;;-2.59;92.48
46392;BME280;32098;49.448;7.904;2023-12-04T12:21:15;97429.81;;;-2.57;93.05
46392;BME280;32098;49.448;7.904;2023-12-04T12:23:42;97421.66;;;-2.62;93.26
46392;BME280;32098;49.448;7.904;2023-12-04T12:26:10;97413.63;;;-2.44;93.08
46392;BME280;32098;49.448;7.904;2023-12-04T12:28:37;97414.44;;;-2.44;93.51
46392;BME280;32098;49.448;7.904;2023-12-04T12:31:04;97408.34;;;-2.28;94.03
46392;BME280;32098;49.448;7.904;2023-12-04T12:33:31;97411.81;;;-2.44;94.29
46392;BME280;32098;49.448;7.904;2023-12-04T12:35:59;97401.47;;;-2.29;93.74
46392;BME280;32098;49.448;7.904;2023-12-04T12:38:30;97389.88;;;-2.26;93.10
46392;BME280;32098;49.448;7.904;2023-12-04T12:41:07;97397.16;;;-2.53;93.75
46392;BME280;32098;49.448;7.904;2023-12-04T12:43:38;97380.97;;;-2.48;92.84
46392;BME280;32098;49.448;7.904;2023-12-04T12:46:05;97380.97;;;-2.48;93.01
46392;BME280;32098;49.448;7.904;2023-12-04T12:48:32;97387.34;;;-2.51;93.26
46392;BME280;32098;49.448;7.904;2023-12-04T12:50:59;97385.91;;;-2.61;92.76
46392;BME280;32098;49.448;7.904;2023-12-04T12:53:28;97365.34;;;-2.72;93.63
46392;BME280;32098;49.448;7.904;2023-12-04T12:55:59;97380.03;;;-2.71;93.33
46392;BME280;32098;49.448;7.904;2023-12-04T12:58:27;97359.47;;;-2.82;92.47
46392;BME280;32098;49.448;7.904;2023-12-04T13:00:55;97357.88;;;-3.00;92.73
46392;BME280;32098;49.448;7.904;2023-12-04T13:03:22;97360.03;;;-3.03;92.88
46392;BME280;32098;49.448;7.904;2023-12-04T13:05:49;97359.00;;;-2.86;92.64
46392;BME280;32098;49.448;7.904;2023-12-04T13:08:16;97351.50;;;-2.89;92.19